createdAt,value
2023-04-28T00:00:31.809Z,32.25
2023-04-28T00:01:31.594Z,32.23
2023-04-28T00:02:31.743Z,32.24
2023-04-28T00:03:31.883Z,32.21
2023-04-28T00:04:31.880Z,32.21
2023-04-28T00:05:31.869Z,32.24
2023-04-28T00:06:31.661Z,32.19
2023-04-28T00:07:31.687Z,32.22
2023-04-28T00:08:31.707Z,32.22
2023-04-28T00:09:31.709Z,32.19
2023-04-28T00:10:31.808Z,32.20
2023-04-28T00:11:31.730Z,32.20
2023-04-28T00:12:31.766Z,32.20
2023-04-28T00:13:31.779Z,32.19
2023-04-28T00:14:31.787Z,32.16
2023-04-28T00:15:31.762Z,32.18
2023-04-28T00:16:31.816Z,32.17
2023-04-28T00:17:31.876Z,32.17
2023-04-28T00:18:31.808Z,32.18
2023-04-28T00:19:31.820Z,32.16
2023-04-28T00:20:32.268Z,32.16
2023-04-28T00:21:31.853Z,32.15
2023-04-28T00:22:31.888Z,32.14
2023-04-28T00:23:31.895Z,32.15
2023-04-28T00:24:31.920Z,32.13
2023-04-28T00:25:31.897Z,32.12
2023-04-28T00:26:31.943Z,32.10
2023-04-28T00:27:31.921Z,32.12
2023-04-28T00:28:34.660Z,32.11
2023-04-28T00:29:31.935Z,32.13
2023-04-28T00:30:31.933Z,32.12
2023-04-28T00:31:31.939Z,32.10
2023-04-28T00:32:31.927Z,32.11
2023-04-28T00:33:31.896Z,32.08
2023-04-28T00:34:31.885Z,32.09
2023-04-28T00:35:32.319Z,32.07
2023-04-28T00:36:31.882Z,32.06
2023-04-28T00:37:31.870Z,32.09
2023-04-28T00:38:31.885Z,32.08
2023-04-28T00:39:31.847Z,32.07
2023-04-28T00:40:31.833Z,32.07
2023-04-28T00:41:31.839Z,32.04
2023-04-28T00:42:31.850Z,32.04
2023-04-28T00:43:31.805Z,32.06
2023-04-28T00:44:31.833Z,32.05
2023-04-28T00:45:32.351Z,32.03
2023-04-28T00:46:31.799Z,32.05
2023-04-28T00:47:31.829Z,32.01
2023-04-28T00:48:31.781Z,32.02
2023-04-28T00:49:31.800Z,32.04
2023-04-28T00:50:31.829Z,32.02
2023-04-28T00:51:31.811Z,32.01
2023-04-28T00:52:31.758Z,32.01
2023-04-28T00:53:31.750Z,31.99
2023-04-28T00:54:31.772Z,31.96
2023-04-28T00:55:31.776Z,31.98
2023-04-28T00:56:31.738Z,32.00
2023-04-28T00:57:31.756Z,31.99
2023-04-28T00:58:31.757Z,31.98
2023-04-28T00:59:31.712Z,31.97
2023-04-28T01:00:31.809Z,31.96
2023-04-28T01:01:31.727Z,31.98
2023-04-28T01:02:31.814Z,31.98
2023-04-28T01:03:31.826Z,31.98
2023-04-28T01:04:31.968Z,31.97
2023-04-28T01:05:31.650Z,31.95
2023-04-28T01:06:31.661Z,31.95
2023-04-28T01:07:31.638Z,31.94
2023-04-28T01:08:31.666Z,31.93
2023-04-28T01:09:31.626Z,31.93
2023-04-28T01:10:31.805Z,31.94
2023-04-28T01:11:31.638Z,31.94
2023-04-28T01:12:31.606Z,31.91
2023-04-28T01:13:31.644Z,31.93
2023-04-28T01:14:31.617Z,31.91
2023-04-28T01:15:31.606Z,31.91
2023-04-28T01:16:31.692Z,31.91
2023-04-28T01:17:31.630Z,31.90
2023-04-28T01:18:31.604Z,31.87
2023-04-28T01:19:31.599Z,31.88
2023-04-28T01:20:31.565Z,31.88
2023-04-28T01:21:31.571Z,31.89
2023-04-28T01:22:31.576Z,31.89
2023-04-28T01:23:31.529Z,31.88
2023-04-28T01:24:31.540Z,31.88
2023-04-28T01:25:31.568Z,31.87
2023-04-28T01:26:31.576Z,31.85
2023-04-28T01:27:31.517Z,31.84
2023-04-28T01:28:31.525Z,31.83
2023-04-28T01:29:31.525Z,31.86
2023-04-28T01:30:31.824Z,31.85
2023-04-28T01:31:31.508Z,31.84
2023-04-28T01:32:31.515Z,31.83
2023-04-28T01:33:31.497Z,31.83
2023-04-28T01:34:31.507Z,31.82
2023-04-28T01:35:31.811Z,31.83
2023-04-28T01:36:31.468Z,31.82
2023-04-28T01:37:31.455Z,31.82
2023-04-28T01:38:31.453Z,31.82
2023-04-28T01:39:31.488Z,31.82
2023-04-28T01:40:31.475Z,31.82
2023-04-28T01:41:31.433Z,31.81
2023-04-28T01:42:31.405Z,31.81
2023-04-28T01:43:31.393Z,31.79
2023-04-28T01:44:31.395Z,31.80
2023-04-28T01:45:31.373Z,31.80
2023-04-28T01:46:31.479Z,31.76
2023-04-28T01:47:31.414Z,31.78
2023-04-28T01:48:31.359Z,31.77
2023-04-28T01:49:31.349Z,31.77
2023-04-28T01:50:31.343Z,31.76
2023-04-28T01:51:31.350Z,31.75
2023-04-28T01:52:31.323Z,31.74
2023-04-28T01:53:31.329Z,31.74
2023-04-28T01:54:31.335Z,31.74
2023-04-28T01:55:31.318Z,31.75
2023-04-28T01:56:31.348Z,31.73
2023-04-28T01:57:31.286Z,31.72
2023-04-28T01:58:31.283Z,31.75
2023-04-28T01:59:31.297Z,31.71
2023-04-28T02:00:31.354Z,31.71
2023-04-28T02:01:31.360Z,31.74
2023-04-28T02:02:31.369Z,31.73
2023-04-28T02:03:31.443Z,31.72
2023-04-28T02:04:31.267Z,31.71
2023-04-28T02:05:31.327Z,31.71
2023-04-28T02:06:31.243Z,31.70
2023-04-28T02:07:31.260Z,31.69
2023-04-28T02:08:31.234Z,31.69
2023-04-28T02:09:31.221Z,31.69
2023-04-28T02:10:31.351Z,31.67
2023-04-28T02:11:31.218Z,31.68
2023-04-28T02:12:31.220Z,31.68
2023-04-28T02:13:31.243Z,31.66
2023-04-28T02:14:31.161Z,31.67
2023-04-28T02:15:31.390Z,31.64
2023-04-28T02:16:31.332Z,31.65
2023-04-28T02:17:31.171Z,31.65
2023-04-28T02:18:31.155Z,31.64
2023-04-28T02:19:31.143Z,31.66
2023-04-28T02:20:33.187Z,31.66
2023-04-28T02:21:31.105Z,31.63
2023-04-28T02:22:31.146Z,31.63
2023-04-28T02:23:31.121Z,31.65
2023-04-28T02:24:31.135Z,31.64
2023-04-28T02:25:31.403Z,31.62
2023-04-28T02:26:31.097Z,31.65
2023-04-28T02:27:31.093Z,31.65
2023-04-28T02:28:31.094Z,31.64
2023-04-28T02:29:31.054Z,31.63
2023-04-28T02:30:31.056Z,31.64
2023-04-28T02:31:31.123Z,31.62
2023-04-28T02:32:31.084Z,31.62
2023-04-28T02:33:31.027Z,31.60
2023-04-28T02:34:31.019Z,31.61
2023-04-28T02:35:31.330Z,31.61
2023-04-28T02:36:31.033Z,31.61
2023-04-28T02:37:31.046Z,31.64
2023-04-28T02:38:31.044Z,31.60
2023-04-28T02:39:31.026Z,31.60
2023-04-28T02:40:31.069Z,31.60
2023-04-28T02:41:31.085Z,31.59
2023-04-28T02:42:31.070Z,31.58
2023-04-28T02:43:31.107Z,31.58
2023-04-28T02:44:31.091Z,31.56
2023-04-28T02:45:31.101Z,31.57
2023-04-28T02:46:31.151Z,31.59
2023-04-28T02:47:31.117Z,31.58
2023-04-28T02:48:31.142Z,31.59
2023-04-28T02:49:31.112Z,31.59
2023-04-28T02:50:31.139Z,31.60
2023-04-28T02:51:31.154Z,31.58
2023-04-28T02:52:31.157Z,31.57
2023-04-28T02:53:31.171Z,31.58
2023-04-28T02:54:31.175Z,31.56
2023-04-28T02:55:31.162Z,31.58
2023-04-28T02:56:31.208Z,31.58
2023-04-28T02:57:31.213Z,31.57
2023-04-28T02:58:31.203Z,31.57
2023-04-28T02:59:31.210Z,31.54
2023-04-28T03:00:31.219Z,31.55
2023-04-28T03:01:31.245Z,31.55
2023-04-28T03:02:31.447Z,31.55
2023-04-28T03:03:31.315Z,31.56
2023-04-28T03:04:31.324Z,31.55
2023-04-28T03:05:31.254Z,31.56
2023-04-28T03:06:31.259Z,31.56
2023-04-28T03:07:31.272Z,31.54
2023-04-28T03:08:31.305Z,31.56
2023-04-28T03:09:31.284Z,31.52
2023-04-28T03:10:31.317Z,31.54
2023-04-28T03:11:31.381Z,31.54
2023-04-28T03:12:31.315Z,31.56
2023-04-28T03:13:31.332Z,31.55
2023-04-28T03:14:31.361Z,31.51
2023-04-28T03:15:31.357Z,31.52
2023-04-28T03:16:31.433Z,31.55
2023-04-28T03:17:31.457Z,31.52
2023-04-28T03:18:31.378Z,31.51
2023-04-28T03:19:31.422Z,31.49
2023-04-28T03:20:31.421Z,31.49
2023-04-28T03:21:31.397Z,31.50
2023-04-28T03:22:31.414Z,31.50
2023-04-28T03:23:31.437Z,31.50
2023-04-28T03:24:31.449Z,31.51
2023-04-28T03:25:31.449Z,31.50
2023-04-28T03:26:31.895Z,31.49
2023-04-28T03:27:31.478Z,31.51
2023-04-28T03:28:31.519Z,31.49
2023-04-28T03:29:31.480Z,31.51
2023-04-28T03:30:31.522Z,31.51
2023-04-28T03:31:31.605Z,31.51
2023-04-28T03:32:31.570Z,31.50
2023-04-28T03:33:31.545Z,31.50
2023-04-28T03:34:31.593Z,31.51
2023-04-28T03:35:31.591Z,31.50
2023-04-28T03:36:31.866Z,31.51
2023-04-28T03:37:31.626Z,31.49
2023-04-28T03:38:31.623Z,31.50
2023-04-28T03:39:31.596Z,31.48
2023-04-28T03:40:31.599Z,31.51
2023-04-28T03:41:31.623Z,31.50
2023-04-28T03:42:31.596Z,31.53
2023-04-28T03:43:31.610Z,31.53
2023-04-28T03:44:31.588Z,31.52
2023-04-28T03:45:31.670Z,31.50
2023-04-28T03:46:31.632Z,31.48
2023-04-28T03:47:31.688Z,31.49
2023-04-28T03:48:31.710Z,31.48
2023-04-28T03:49:31.682Z,31.50
2023-04-28T03:50:31.671Z,31.50
2023-04-28T03:51:31.671Z,31.50
2023-04-28T03:52:31.681Z,31.48
2023-04-28T03:53:31.687Z,31.49
2023-04-28T03:54:31.636Z,31.49
2023-04-28T03:55:31.662Z,31.49
2023-04-28T03:56:31.679Z,31.49
2023-04-28T03:57:31.656Z,31.51
2023-04-28T03:58:31.662Z,31.49
2023-04-28T03:59:31.651Z,31.49
2023-04-28T04:00:31.686Z,31.51
2023-04-28T04:01:31.690Z,31.50
2023-04-28T04:02:31.731Z,31.49
2023-04-28T04:03:31.950Z,31.50
2023-04-28T04:04:32.053Z,31.47
2023-04-28T04:05:31.697Z,31.48
2023-04-28T04:06:31.676Z,31.48
2023-04-28T04:07:31.619Z,31.49
2023-04-28T04:08:31.669Z,31.50
2023-04-28T04:09:31.638Z,31.49
2023-04-28T04:10:31.638Z,31.50
2023-04-28T04:11:31.679Z,31.47
2023-04-28T04:12:31.649Z,31.51
2023-04-28T04:13:31.659Z,31.50
2023-04-28T04:14:31.676Z,31.48
2023-04-28T04:15:31.716Z,31.51
2023-04-28T04:16:31.777Z,31.49
2023-04-28T04:17:31.789Z,31.50
2023-04-28T04:18:31.758Z,31.47
2023-04-28T04:19:31.775Z,31.48
2023-04-28T04:20:31.797Z,31.47
2023-04-28T04:21:31.836Z,31.50
2023-04-28T04:22:31.816Z,31.48
2023-04-28T04:23:31.869Z,31.48
2023-04-28T04:24:31.833Z,31.47
2023-04-28T04:25:31.833Z,31.47
2023-04-28T04:26:32.398Z,31.48
2023-04-28T04:27:31.920Z,31.47
2023-04-28T04:28:31.940Z,31.46
2023-04-28T04:29:31.917Z,31.45
2023-04-28T04:30:31.948Z,31.45
2023-04-28T04:31:32.043Z,31.47
2023-04-28T04:32:32.022Z,31.46
2023-04-28T04:33:31.980Z,31.46
2023-04-28T04:34:31.997Z,31.47
2023-04-28T04:35:32.063Z,31.43
2023-04-28T04:36:32.070Z,31.46
2023-04-28T04:37:32.089Z,31.47
2023-04-28T04:38:32.097Z,31.46
2023-04-28T04:39:32.135Z,31.46
2023-04-28T04:40:32.108Z,31.46
2023-04-28T04:41:32.157Z,31.45
2023-04-28T04:42:32.211Z,31.45
2023-04-28T04:43:32.218Z,31.46
2023-04-28T04:44:32.236Z,31.46
2023-04-28T04:45:32.224Z,31.46
2023-04-28T04:46:32.308Z,31.44
2023-04-28T04:47:32.309Z,31.44
2023-04-28T04:48:32.280Z,31.44
2023-04-28T04:49:32.295Z,31.43
2023-04-28T04:50:32.316Z,31.44
2023-04-28T04:51:32.351Z,31.44
2023-04-28T04:52:32.379Z,31.44
2023-04-28T04:53:32.390Z,31.42
2023-04-28T04:54:32.513Z,31.44
2023-04-28T04:55:32.445Z,31.41
2023-04-28T04:56:32.457Z,31.44
2023-04-28T04:57:32.482Z,31.42
2023-04-28T04:58:32.490Z,31.42
2023-04-28T04:59:32.535Z,31.42
2023-04-28T05:00:32.505Z,31.42
2023-04-28T05:01:32.939Z,31.40
2023-04-28T05:02:32.691Z,31.41
2023-04-28T05:03:32.713Z,31.40
2023-04-28T05:04:32.739Z,31.41
2023-04-28T05:05:32.712Z,31.42
2023-04-28T05:06:32.923Z,31.40
2023-04-28T05:07:32.664Z,31.42
2023-04-28T05:08:32.703Z,31.42
2023-04-28T05:09:32.713Z,31.39
2023-04-28T05:10:32.760Z,31.41
2023-04-28T05:11:32.934Z,31.41
2023-04-28T05:12:32.783Z,31.41
2023-04-28T05:13:32.815Z,31.39
2023-04-28T05:14:32.824Z,31.40
2023-04-28T05:15:32.819Z,31.40
2023-04-28T05:16:32.937Z,31.40
2023-04-28T05:17:32.920Z,31.39
2023-04-28T05:18:32.915Z,31.40
2023-04-28T05:19:32.929Z,31.40
2023-04-28T05:20:32.936Z,31.41
2023-04-28T05:21:32.965Z,31.40
2023-04-28T05:22:33.003Z,31.38
2023-04-28T05:23:32.996Z,31.41
2023-04-28T05:24:33.050Z,31.41
2023-04-28T05:25:33.018Z,31.39
2023-04-28T05:26:33.068Z,31.40
2023-04-28T05:27:33.080Z,31.40
2023-04-28T05:28:33.092Z,31.39
2023-04-28T05:29:33.166Z,31.37
2023-04-28T05:30:33.167Z,31.38
2023-04-28T05:31:33.247Z,31.39
2023-04-28T05:32:33.316Z,31.39
2023-04-28T05:33:33.244Z,31.37
2023-04-28T05:34:33.264Z,31.38
2023-04-28T05:35:33.274Z,31.37
2023-04-28T05:36:33.319Z,31.38
2023-04-28T05:37:33.328Z,31.39
2023-04-28T05:38:33.345Z,31.41
2023-04-28T05:39:33.360Z,31.41
2023-04-28T05:40:33.424Z,31.40
2023-04-28T05:41:33.434Z,31.41
2023-04-28T05:42:33.440Z,31.41
2023-04-28T05:43:33.463Z,31.41
2023-04-28T05:44:33.485Z,31.41
2023-04-28T05:45:33.511Z,31.40
2023-04-28T05:46:33.935Z,31.40
2023-04-28T05:47:33.643Z,31.38
2023-04-28T05:48:33.608Z,31.40
2023-04-28T05:49:33.607Z,31.40
2023-04-28T05:50:33.654Z,31.41
2023-04-28T05:51:33.971Z,31.57
2023-04-28T05:52:33.721Z,31.68
2023-04-28T05:53:33.739Z,31.77
2023-04-28T05:54:33.728Z,31.91
2023-04-28T05:55:33.740Z,31.98
2023-04-28T05:56:33.799Z,31.95
2023-04-28T05:57:41.711Z,32.03
2023-04-28T05:58:34.797Z,32.34
2023-04-28T05:59:33.778Z,32.20
2023-04-28T06:00:33.787Z,32.38
2023-04-28T06:01:33.934Z,32.39
2023-04-28T06:02:33.866Z,32.47
2023-04-28T06:03:33.948Z,32.90
2023-04-28T06:04:34.058Z,33.03
2023-04-28T06:05:34.292Z,33.40
2023-04-28T06:06:33.737Z,33.50
2023-04-28T06:07:33.750Z,33.38
2023-04-28T06:08:33.733Z,33.38
2023-04-28T06:09:34.438Z,33.53
2023-04-28T06:10:33.685Z,33.88
2023-04-28T06:11:33.960Z,34.03
2023-04-28T06:12:33.712Z,34.05
2023-04-28T06:13:33.701Z,34.32
2023-04-28T06:14:33.675Z,34.50
2023-04-28T06:15:33.756Z,34.26
2023-04-28T06:16:34.033Z,34.37
2023-04-28T06:17:33.755Z,34.52
2023-04-28T06:18:33.766Z,34.90
2023-04-28T06:19:33.817Z,34.85
2023-04-28T06:20:33.813Z,34.80
2023-04-28T06:21:33.931Z,35.35
2023-04-28T06:22:33.889Z,35.34
2023-04-28T06:23:33.945Z,35.06
2023-04-28T06:24:33.956Z,35.13
2023-04-28T06:25:33.996Z,35.40
2023-04-28T06:26:34.484Z,35.26
2023-04-28T06:27:34.075Z,35.10
2023-04-28T06:28:34.083Z,35.25
2023-04-28T06:29:34.149Z,35.47
2023-04-28T06:30:34.119Z,35.41
2023-04-28T06:31:34.215Z,35.59
2023-04-28T06:32:34.220Z,35.68
2023-04-28T06:33:34.268Z,35.92
2023-04-28T06:34:34.268Z,35.98
2023-04-28T06:35:34.295Z,36.26
2023-04-28T06:36:34.352Z,36.29
2023-04-28T06:37:34.351Z,36.41
2023-04-28T06:38:34.361Z,36.67
2023-04-28T06:39:34.387Z,36.70
2023-04-28T06:40:34.363Z,36.73
2023-04-28T06:41:34.381Z,36.75
2023-04-28T06:42:34.384Z,36.68
2023-04-28T06:43:34.427Z,36.76
2023-04-28T06:44:36.329Z,36.89
2023-04-28T06:45:34.533Z,36.95
2023-04-28T06:46:34.637Z,37.00
2023-04-28T06:47:34.655Z,37.04
2023-04-28T06:48:34.678Z,37.17
2023-04-28T06:49:34.744Z,37.17
2023-04-28T06:50:34.788Z,37.20
2023-04-28T06:51:34.864Z,37.26
2023-04-28T06:52:39.226Z,37.27
2023-04-28T06:53:34.880Z,37.81
2023-04-28T06:54:34.849Z,37.56
2023-04-28T06:55:34.858Z,37.71
2023-04-28T06:56:34.907Z,37.65
2023-04-28T06:57:34.846Z,37.78
2023-04-28T06:58:34.926Z,37.63
2023-04-28T06:59:34.865Z,37.88
2023-04-28T07:00:34.842Z,37.53
2023-04-28T07:01:34.831Z,37.51
2023-04-28T07:02:34.906Z,37.62
2023-04-28T07:03:34.902Z,37.78
2023-04-28T07:04:34.774Z,37.76
2023-04-28T07:05:34.784Z,37.94
2023-04-28T07:06:34.794Z,37.82
2023-04-28T07:07:34.839Z,38.03
2023-04-28T07:08:34.877Z,37.83
2023-04-28T07:09:34.905Z,37.94
2023-04-28T07:10:34.944Z,37.90
2023-04-28T07:11:34.971Z,38.00
2023-04-28T07:12:34.986Z,38.10
2023-04-28T07:13:34.990Z,38.06
2023-04-28T07:14:35.044Z,38.12
2023-04-28T07:15:35.062Z,38.23
2023-04-28T07:16:35.195Z,38.22
2023-04-28T07:17:35.114Z,38.14
2023-04-28T07:18:35.171Z,38.28
2023-04-28T07:19:35.165Z,38.12
2023-04-28T07:20:35.205Z,38.00
2023-04-28T07:21:35.218Z,38.15
2023-04-28T07:22:35.210Z,38.21
2023-04-28T07:23:35.253Z,38.13
2023-04-28T07:24:35.277Z,38.17
2023-04-28T07:25:35.319Z,38.14
2023-04-28T07:26:35.277Z,38.26
2023-04-28T07:27:35.336Z,38.23
2023-04-28T07:28:35.337Z,38.25
2023-04-28T07:29:35.338Z,38.10
2023-04-28T07:30:35.367Z,38.23
2023-04-28T07:31:35.483Z,38.25
2023-04-28T07:32:35.411Z,38.24
2023-04-28T07:33:35.358Z,38.23
2023-04-28T07:34:35.378Z,38.30
2023-04-28T07:35:35.379Z,38.32
2023-04-28T07:36:35.408Z,38.39
2023-04-28T07:37:35.427Z,38.14
2023-04-28T07:38:35.404Z,38.21
2023-04-28T07:39:35.508Z,38.22
2023-04-28T07:40:35.429Z,38.31
2023-04-28T07:41:35.430Z,38.36
2023-04-28T07:42:35.425Z,38.24
2023-04-28T07:43:35.424Z,38.26
2023-04-28T07:44:35.460Z,38.51
2023-04-28T07:45:35.445Z,38.57
2023-04-28T07:46:35.554Z,38.59
2023-04-28T07:47:35.480Z,38.57
2023-04-28T07:48:35.462Z,38.61
2023-04-28T07:49:35.420Z,38.79
2023-04-28T07:50:35.435Z,38.64
2023-04-28T07:51:35.411Z,38.75
2023-04-28T07:52:35.413Z,38.74
2023-04-28T07:53:35.433Z,38.37
2023-04-28T07:54:37.062Z,38.23
2023-04-28T07:55:35.453Z,38.24
2023-04-28T07:56:35.458Z,38.21
2023-04-28T07:57:35.473Z,38.25
2023-04-28T07:58:35.480Z,38.14
2023-04-28T07:59:35.499Z,38.14
2023-04-28T08:00:35.559Z,38.12
2023-04-28T08:01:35.559Z,37.98
2023-04-28T08:02:36.130Z,38.06
2023-04-28T08:03:35.860Z,37.92
2023-04-28T08:04:35.894Z,37.94
2023-04-28T08:05:35.783Z,37.97
2023-04-28T08:06:35.836Z,37.98
2023-04-28T08:07:35.900Z,37.98
2023-04-28T08:08:35.910Z,38.00
2023-04-28T08:09:35.915Z,38.07
2023-04-28T08:10:35.997Z,38.23
2023-04-28T08:11:36.006Z,38.30
2023-04-28T08:12:36.077Z,38.36
2023-04-28T08:13:36.087Z,38.36
2023-04-28T08:14:36.107Z,38.45
2023-04-28T08:15:36.124Z,38.57
2023-04-28T08:16:36.156Z,38.50
2023-04-28T08:17:36.197Z,38.58
2023-04-28T08:18:36.246Z,38.56
2023-04-28T08:19:36.219Z,38.56
2023-04-28T08:20:36.225Z,38.72
2023-04-28T08:21:36.212Z,38.61
2023-04-28T08:22:36.210Z,38.61
2023-04-28T08:23:36.223Z,38.59
2023-04-28T08:24:36.244Z,38.80
2023-04-28T08:25:36.246Z,38.77
2023-04-28T08:26:36.248Z,38.78
2023-04-28T08:27:36.589Z,38.92
2023-04-28T08:28:36.229Z,38.84
2023-04-28T08:29:36.238Z,38.86
2023-04-28T08:30:36.227Z,38.84
2023-04-28T08:31:36.275Z,38.97
2023-04-28T08:32:36.520Z,39.03
2023-04-28T08:33:36.239Z,39.04
2023-04-28T08:34:36.303Z,39.14
2023-04-28T08:35:36.305Z,39.06
2023-04-28T08:36:36.279Z,39.17
2023-04-28T08:37:36.303Z,39.02
2023-04-28T08:38:36.280Z,39.00
2023-04-28T08:39:36.342Z,39.13
2023-04-28T08:40:36.282Z,39.05
2023-04-28T08:41:36.273Z,39.04
2023-04-28T08:42:36.293Z,39.08
2023-04-28T08:43:36.285Z,38.97
2023-04-28T08:44:36.269Z,39.09
2023-04-28T08:45:36.324Z,39.01
2023-04-28T08:46:36.359Z,39.16
2023-04-28T08:47:36.392Z,39.48
2023-04-28T08:48:36.329Z,39.05
2023-04-28T08:49:36.355Z,39.09
2023-04-28T08:50:36.355Z,39.08
2023-04-28T08:51:36.342Z,39.08
2023-04-28T08:52:36.495Z,39.12
2023-04-28T08:53:52.200Z,38.84
2023-04-28T08:54:37.447Z,38.44
2023-04-28T08:55:36.378Z,38.51
2023-04-28T08:56:36.409Z,38.24
2023-04-28T08:57:36.507Z,38.22
2023-04-28T08:58:36.343Z,38.33
2023-04-28T08:59:36.340Z,38.57
2023-04-28T09:00:36.338Z,38.30
2023-04-28T09:01:36.339Z,38.31
2023-04-28T09:02:36.639Z,38.24
2023-04-28T09:03:36.499Z,38.34
2023-04-28T09:04:36.437Z,38.46
2023-04-28T09:05:36.453Z,38.75
2023-04-28T09:06:36.310Z,38.56
2023-04-28T09:07:36.267Z,38.68
2023-04-28T09:08:36.285Z,38.68
2023-04-28T09:09:38.621Z,38.66
2023-04-28T09:10:36.286Z,38.69
2023-04-28T09:11:36.268Z,38.43
2023-04-28T09:12:36.265Z,38.19
2023-04-28T09:13:36.225Z,37.39
2023-04-28T09:14:36.217Z,37.49
2023-04-28T09:15:36.218Z,36.91
2023-04-28T09:16:36.276Z,36.82
2023-04-28T09:17:36.244Z,37.16
2023-04-28T09:18:36.228Z,37.07
2023-04-28T09:19:36.339Z,37.53
2023-04-28T09:20:36.192Z,37.26
2023-04-28T09:21:36.202Z,37.46
2023-04-28T09:22:36.166Z,37.67
2023-04-28T09:23:36.163Z,37.35
2023-04-28T09:24:36.165Z,37.53
2023-04-28T09:25:36.154Z,37.51
2023-04-28T09:26:36.153Z,37.58
2023-04-28T09:27:36.162Z,37.52
2023-04-28T09:28:36.130Z,37.49
2023-04-28T09:29:36.133Z,37.62
2023-04-28T09:30:36.120Z,37.56
2023-04-28T09:31:36.149Z,37.54
2023-04-28T09:32:36.160Z,37.57
2023-04-28T09:33:36.137Z,37.54
2023-04-28T09:34:36.093Z,37.51
2023-04-28T09:35:36.074Z,37.74
2023-04-28T09:36:36.095Z,37.24
2023-04-28T09:37:36.544Z,37.43
2023-04-28T09:38:36.083Z,37.39
2023-04-28T09:39:36.050Z,37.34
2023-04-28T09:40:36.077Z,37.49
2023-04-28T09:41:36.113Z,37.50
2023-04-28T09:42:36.074Z,37.30
2023-04-28T09:43:36.065Z,37.46
2023-04-28T09:44:36.016Z,37.47
2023-04-28T09:45:36.041Z,37.43
2023-04-28T09:46:36.115Z,37.45
2023-04-28T09:47:36.125Z,37.60
2023-04-28T09:48:36.003Z,37.54
2023-04-28T09:49:36.038Z,37.59
2023-04-28T09:50:35.984Z,37.66
2023-04-28T09:51:35.981Z,37.92
2023-04-28T09:52:36.039Z,37.63
2023-04-28T09:53:35.970Z,37.83
2023-04-28T09:54:35.986Z,37.97
2023-04-28T09:55:35.967Z,37.94
2023-04-28T09:56:35.971Z,37.94
2023-04-28T09:57:36.041Z,38.00
2023-04-28T09:58:36.007Z,38.09
2023-04-28T09:59:35.950Z,38.12
2023-04-28T10:00:35.954Z,38.10
2023-04-28T10:01:35.946Z,38.02
2023-04-28T10:02:42.856Z,38.02
2023-04-28T10:03:36.970Z,37.93
2023-04-28T10:04:36.093Z,38.07
2023-04-28T10:05:36.019Z,38.05
2023-04-28T10:06:35.892Z,38.14
2023-04-28T10:07:35.867Z,38.06
2023-04-28T10:08:35.899Z,37.93
2023-04-28T10:09:35.862Z,37.88
2023-04-28T10:10:35.831Z,37.93
2023-04-28T10:11:35.849Z,37.93
2023-04-28T10:12:35.840Z,37.91
2023-04-28T10:13:36.030Z,37.84
2023-04-28T10:14:35.873Z,38.33
2023-04-28T10:15:35.894Z,38.27
2023-04-28T10:16:35.888Z,38.32
2023-04-28T10:17:35.886Z,38.56
2023-04-28T10:18:35.821Z,38.90
2023-04-28T10:19:35.832Z,39.68
2023-04-28T10:20:35.790Z,39.63
2023-04-28T10:21:35.893Z,39.77
2023-04-28T10:22:35.884Z,39.71
2023-04-28T10:23:36.057Z,39.84
2023-04-28T10:24:35.916Z,39.97
2023-04-28T10:25:35.980Z,40.28
2023-04-28T10:26:35.930Z,40.76
2023-04-28T10:27:35.990Z,40.81
2023-04-28T10:28:36.039Z,40.94
2023-04-28T10:29:36.020Z,40.86
2023-04-28T10:30:36.037Z,41.06
2023-04-28T10:31:36.006Z,41.20
2023-04-28T10:32:36.022Z,41.26
2023-04-28T10:33:35.971Z,41.56
2023-04-28T10:34:35.980Z,41.43
2023-04-28T10:35:36.053Z,41.37
2023-04-28T10:36:36.639Z,41.36
2023-04-28T10:37:36.065Z,41.60
2023-04-28T10:38:36.132Z,41.75
2023-04-28T10:39:36.198Z,42.93
2023-04-28T10:40:36.189Z,42.24
2023-04-28T10:41:36.235Z,42.59
2023-04-28T10:42:36.290Z,42.29
2023-04-28T10:43:36.343Z,42.07
2023-04-28T10:44:36.368Z,41.96
2023-04-28T10:45:36.378Z,41.73
2023-04-28T10:46:36.471Z,41.62
2023-04-28T10:47:36.437Z,41.71
2023-04-28T10:48:36.546Z,41.52
2023-04-28T10:49:36.387Z,41.41
2023-04-28T10:51:36.404Z,41.37
2023-04-28T10:52:37.046Z,41.35
2023-04-28T10:53:36.579Z,41.59
2023-04-28T10:54:36.425Z,41.36
2023-04-28T10:55:36.568Z,41.10
2023-04-28T10:56:36.467Z,41.38
2023-04-28T10:57:36.451Z,41.36
2023-04-28T10:58:36.520Z,41.22
2023-04-28T10:59:36.536Z,41.08
2023-04-28T11:00:36.543Z,41.03
2023-04-28T11:01:36.606Z,40.96
2023-04-28T11:02:36.718Z,40.76
2023-04-28T11:03:37.254Z,40.83
2023-04-28T11:04:36.871Z,40.65
2023-04-28T11:05:36.679Z,40.71
2023-04-28T11:06:36.680Z,40.75
2023-04-28T11:07:36.720Z,40.79
2023-04-28T11:08:36.759Z,40.61
2023-04-28T11:09:36.766Z,40.71
2023-04-28T11:10:36.807Z,40.56
2023-04-28T11:11:36.851Z,40.45
2023-04-28T11:12:36.866Z,40.44
2023-04-28T11:13:36.923Z,40.45
2023-04-28T11:14:36.960Z,40.42
2023-04-28T11:15:36.980Z,40.32
2023-04-28T11:16:37.014Z,40.31
2023-04-28T11:17:37.089Z,40.30
2023-04-28T11:18:37.074Z,40.22
2023-04-28T11:19:37.124Z,40.10
2023-04-28T11:20:37.175Z,40.10
2023-04-28T11:21:37.230Z,39.98
2023-04-28T11:22:37.248Z,39.97
2023-04-28T11:23:37.582Z,39.96
2023-04-28T11:24:37.344Z,40.09
2023-04-28T11:25:37.397Z,39.95
2023-04-28T11:26:37.455Z,39.80
2023-04-28T11:27:37.519Z,39.99
2023-04-28T11:28:37.577Z,39.73
2023-04-28T11:29:37.588Z,39.87
2023-04-28T11:30:37.662Z,39.68
2023-04-28T11:31:37.751Z,39.72
2023-04-28T11:32:37.796Z,39.59
2023-04-28T11:33:38.085Z,39.59
2023-04-28T11:34:37.846Z,39.62
2023-04-28T11:35:37.904Z,39.41
2023-04-28T11:36:37.979Z,39.48
2023-04-28T11:37:37.965Z,39.43
2023-04-28T11:38:38.017Z,39.43
2023-04-28T11:39:38.083Z,39.48
2023-04-28T11:40:38.162Z,39.37
2023-04-28T11:41:38.220Z,39.30
2023-04-28T11:42:38.248Z,39.45
2023-04-28T11:43:47.011Z,39.31
2023-04-28T11:44:39.304Z,39.36
2023-04-28T11:45:38.325Z,39.25
2023-04-28T11:46:38.281Z,39.35
2023-04-28T11:47:38.303Z,39.16
2023-04-28T11:48:38.275Z,39.27
2023-04-28T11:49:39.019Z,39.18
2023-04-28T11:50:38.381Z,39.15
2023-04-28T11:51:38.424Z,39.02
2023-04-28T11:52:38.450Z,39.09
2023-04-28T11:53:38.613Z,39.25
2023-04-28T11:54:38.581Z,39.19
2023-04-28T11:55:38.859Z,39.28
2023-04-28T11:56:38.710Z,39.22
2023-04-28T11:57:38.753Z,39.11
2023-04-28T11:58:39.087Z,39.07
2023-04-28T11:59:39.929Z,39.23
2023-04-28T12:00:38.870Z,39.14
2023-04-28T12:01:38.913Z,39.05
2023-04-28T12:02:38.930Z,38.99
2023-04-28T12:03:39.261Z,39.00
2023-04-28T12:04:38.842Z,38.88
2023-04-28T12:05:39.172Z,39.17
2023-04-28T12:06:38.833Z,39.28
2023-04-28T12:07:38.785Z,39.20
2023-04-28T12:08:38.843Z,39.30
2023-04-28T12:09:38.806Z,39.16
2023-04-28T12:10:38.827Z,39.30
2023-04-28T12:11:38.813Z,39.22
2023-04-28T12:12:49.891Z,39.23
2023-04-28T12:13:39.754Z,39.28
2023-04-28T12:14:38.744Z,39.24
2023-04-28T12:15:38.778Z,39.24
2023-04-28T12:16:38.750Z,39.18
2023-04-28T12:17:38.757Z,39.25
2023-04-28T12:18:38.746Z,39.24
2023-04-28T12:19:38.727Z,39.22
2023-04-28T12:20:38.971Z,39.17
2023-04-28T12:21:38.747Z,39.16
2023-04-28T12:22:38.741Z,39.08
2023-04-28T12:23:39.082Z,39.25
2023-04-28T12:24:38.877Z,39.32
2023-04-28T12:25:38.907Z,39.25
2023-04-28T12:26:38.983Z,39.17
2023-04-28T12:27:39.256Z,39.20
2023-04-28T12:28:39.103Z,39.12
2023-04-28T12:29:39.157Z,39.04
2023-04-28T12:30:39.216Z,39.25
2023-04-28T12:31:39.266Z,39.02
2023-04-28T12:32:39.384Z,39.07
2023-04-28T12:33:39.427Z,39.17
2023-04-28T12:34:39.449Z,39.11
2023-04-28T12:35:39.479Z,39.19
2023-04-28T12:36:39.558Z,39.01
2023-04-28T12:37:39.638Z,39.11
2023-04-28T12:38:39.676Z,39.07
2023-04-28T12:39:39.992Z,39.31
2023-04-28T12:40:39.808Z,39.23
2023-04-28T12:41:39.866Z,39.17
2023-04-28T12:42:39.909Z,39.24
2023-04-28T12:43:39.979Z,39.28
2023-04-28T12:44:40.024Z,39.15
2023-04-28T12:45:40.092Z,39.32
2023-04-28T12:46:40.241Z,39.25
2023-04-28T12:47:40.245Z,39.25
2023-04-28T12:48:40.269Z,39.22
2023-04-28T12:49:40.314Z,39.32
2023-04-28T12:50:40.375Z,39.44
2023-04-28T12:51:40.416Z,39.38
2023-04-28T12:52:40.505Z,39.48
2023-04-28T12:53:40.572Z,39.28